Time;durP1;ratioP1;P1;durP2;ratioP2;P2;SDS_P1;SDS_P2;PMS_P1;PMS_P2;Temp;Humidity;BMP_temperature;BMP_pressure;BME280_temperature;BME280_humidity;BME280_pressure;Samples;Min_cycle;Max_cycle;Signal;HPM_P1;HPM_P2
2023/01/15 00:01:21;;;;;;;13.95;2.20;;;7.50;99.90;;;;;;5092466;27;20184;-81
2023/01/15 00:03:47;;;;;;;17.23;2.03;;;7.40;99.90;;;;;;5112460;27;20184;-81
2023/01/15 00:06:14;;;;;;;16.25;2.30;;;7.50;99.90;;;;;;5089635;27;20208;-84
2023/01/15 00:08:40;;;;;;;13.13;2.55;;;7.40;99.90;;;;;;5111888;27;20212;-81
2023/01/15 00:11:06;;;;;;;12.10;2.00;;;7.40;99.90;;;;;;5090688;27;20284;-81
2023/01/15 00:13:32;;;;;;;17.48;2.15;;;7.40;99.90;;;;;;5110338;27;20588;-84
2023/01/15 00:16:11;;;;;;;15.70;2.50;;;7.40;99.90;;;;;;5091290;27;20184;-81
2023/01/15 00:18:37;;;;;;;12.73;1.90;;;7.40;99.90;;;;;;5113103;27;20203;-80
2023/01/15 00:21:06;;;;;;;12.40;2.35;;;7.50;99.90;;;;;;5096066;27;20185;-82
2023/01/15 00:29:04;;;;;;;10.13;2.10;;;7.40;99.90;;;;;;5111345;27;20259;-81
2023/01/15 00:31:31;;;;;;;9.63;1.75;;;7.40;99.90;;;;;;5094040;27;20188;-83
2023/01/15 00:33:57;;;;;;;13.23;1.98;;;7.40;99.90;;;;;;5074500;27;20592;-83
2023/01/15 00:36:24;;;;;;;15.43;2.28;;;7.40;99.90;;;;;;5109811;27;20236;-84
2023/01/15 00:38:50;;;;;;;15.05;2.10;;;7.40;99.90;;;;;;5109039;27;20185;-85
2023/01/15 00:41:19;;;;;;;17.40;2.05;;;7.40;99.90;;;;;;5094991;27;20200;-84
2023/01/15 00:43:44;;;;;;;15.57;2.05;;;7.40;99.90;;;;;;5095595;27;20359;-83
2023/01/15 00:46:12;;;;;;;13.80;2.30;;;7.40;99.90;;;;;;5108599;27;20336;-84
2023/01/15 00:48:38;;;;;;;16.50;2.40;;;7.40;99.90;;;;;;5107696;27;20228;-82
2023/01/15 00:51:05;;;;;;;9.82;2.22;;;7.40;99.90;;;;;;5107608;27;20184;-84
2023/01/15 00:53:31;;;;;;;12.10;1.88;;;7.40;99.90;;;;;;5107724;27;20173;-82
2023/01/15 00:55:57;;;;;;;15.32;2.13;;;7.40;99.90;;;;;;5107699;27;20196;-83
2023/01/15 00:58:23;;;;;;;7.88;1.80;;;7.40;99.90;;;;;;5106974;27;20181;-80
2023/01/15 01:00:56;;;;;;;14.57;2.20;;;7.40;99.90;;;;;;5107435;27;20324;-84
2023/01/15 01:03:23;;;;;;;16.77;2.40;;;7.40;99.90;;;;;;5079986;27;20278;-81
2023/01/15 01:05:49;;;;;;;10.50;2.13;;;7.40;99.90;;;;;;5093728;27;20275;-84
2023/01/15 01:08:15;;;;;;;18.65;2.47;;;7.40;99.90;;;;;;5093605;27;20188;-81
2023/01/15 01:10:42;;;;;;;15.70;1.92;;;7.40;99.90;;;;;;5077753;28;20195;-83
2023/01/15 01:13:08;;;;;;;10.98;1.83;;;7.30;99.90;;;;;;5108602;27;20181;-82
2023/01/15 01:15:35;;;;;;;18.25;2.70;;;7.40;99.90;;;;;;5108330;27;20196;-84
2023/01/15 01:18:02;;;;;;;12.40;2.33;;;7.40;99.90;;;;;;5107323;28;20188;-83
2023/01/15 01:20:28;;;;;;;13.93;2.17;;;7.40;99.90;;;;;;5109384;27;20259;-86
2023/01/15 01:22:54;;;;;;;15.50;2.42;;;7.40;99.90;;;;;;5110080;28;20846;-81
2023/01/15 01:25:20;;;;;;;12.18;2.25;;;7.40;99.90;;;;;;5096143;28;20301;-85
2023/01/15 01:27:46;;;;;;;15.18;2.17;;;7.30;99.90;;;;;;5108287;28;20181;-82
2023/01/15 01:30:12;;;;;;;12.38;2.20;;;7.40;99.90;;;;;;5105592;28;20628;-81
2023/01/15 01:32:39;;;;;;;19.88;2.70;;;7.40;99.90;;;;;;5109183;28;20184;-84
2023/01/15 01:35:05;;;;;;;10.45;1.98;;;7.40;99.90;;;;;;5111007;28;20192;-81
2023/01/15 01:37:31;;;;;;;22.50;2.83;;;7.40;99.90;;;;;;5112865;28;20173;-82
2023/01/15 01:39:57;;;;;;;15.48;2.15;;;7.30;99.90;;;;;;5109325;28;20188;-82
2023/01/15 01:42:23;;;;;;;12.25;1.80;;;7.30;99.90;;;;;;5106698;28;20309;-81
2023/01/15 01:44:48;;;;;;;15.10;2.17;;;7.40;99.90;;;;;;5107793;28;20239;-83
2023/01/15 01:47:21;;;;;;;18.30;2.33;;;7.30;99.90;;;;;;5109922;28;20285;-81
2023/01/15 01:49:52;;;;;;;14.50;2.50;;;7.30;99.90;;;;;;5110971;27;20181;-82
2023/01/15 01:52:24;;;;;;;11.98;2.15;;;7.30;99.90;;;;;;5105443;28;20181;-84
2023/01/15 01:54:51;;;;;;;14.98;1.73;;;7.30;99.90;;;;;;5110598;28;20667;-84
2023/01/15 01:57:18;;;;;;;11.88;2.10;;;7.30;99.90;;;;;;5107682;28;20185;-82
2023/01/15 01:59:45;;;;;;;18.92;2.33;;;7.30;99.90;;;;;;5097543;28;20390;-82
2023/01/15 02:02:11;;;;;;;12.85;2.13;;;7.30;99.90;;;;;;5110474;28;20252;-84
2023/01/15 02:04:37;;;;;;;16.85;2.55;;;7.30;99.90;;;;;;5097624;27;20898;-81
2023/01/15 02:07:04;;;;;;;17.67;2.35;;;7.30;99.90;;;;;;5093998;27;20536;-82
2023/01/15 02:09:30;;;;;;;19.55;2.65;;;7.20;99.90;;;;;;5097899;27;20227;-82
2023/01/15 02:12:08;;;;;;;13.88;2.28;;;7.30;99.90;;;;;;5096284;27;20192;-83
2023/01/15 02:14:59;;;;;;;15.65;2.30;;;7.30;99.90;;;;;;5098448;27;20631;-82
2023/01/15 02:17:52;;;;;;;19.13;2.40;;;7.20;99.90;;;;;;5109883;27;20665;-82
2023/01/15 02:20:29;;;;;;;10.48;1.98;;;7.20;99.90;;;;;;5092402;27;20318;-82
2023/01/15 02:23:12;;;;;;;13.18;1.90;;;7.20;99.90;;;;;;5113144;27;20333;-82
2023/01/15 02:26:06;;;;;;;17.88;2.67;;;7.20;99.90;;;;;;5111425;27;20201;-83
2023/01/15 02:28:40;;;;;;;8.27;1.70;;;7.20;99.90;;;;;;5096788;27;20832;-84
2023/01/15 02:31:18;;;;;;;18.92;2.17;;;7.20;99.90;;;;;;5111228;27;20658;-83
2023/01/15 02:33:51;;;;;;;18.02;1.98;;;7.20;99.90;;;;;;5111239;27;20180;-84
2023/01/15 02:36:22;;;;;;;16.00;2.22;;;7.20;99.90;;;;;;5111017;27;20687;-83
2023/01/15 02:38:52;;;;;;;17.88;2.22;;;7.20;99.90;;;;;;5114366;27;20230;-85
2023/01/15 02:41:24;;;;;;;15.40;2.45;;;7.20;99.90;;;;;;5112204;27;20189;-83
2023/01/15 02:43:53;;;;;;;24.52;2.60;;;7.20;99.90;;;;;;5113144;27;20604;-82
2023/01/15 02:46:27;;;;;;;19.05;2.28;;;7.20;99.90;;;;;;5114233;27;20205;-81
2023/01/15 02:48:57;;;;;;;16.45;2.22;;;7.20;99.90;;;;;;5093393;27;20219;-84
2023/01/15 02:51:30;;;;;;;15.73;2.25;;;7.20;99.90;;;;;;5109077;27;20176;-84
2023/01/15 02:54:00;;;;;;;16.85;2.05;;;7.20;99.90;;;;;;5100454;27;20200;-85
2023/01/15 02:56:34;;;;;;;10.32;2.30;;;7.20;99.90;;;;;;5097315;27;20175;-81
2023/01/15 02:59:06;;;;;;;15.65;2.15;;;7.20;99.90;;;;;;5108383;27;20184;-83
2023/01/15 03:01:37;;;;;;;13.73;2.53;;;7.20;99.90;;;;;;5094846;27;20180;-81
2023/01/15 03:04:14;;;;;;;16.83;2.35;;;7.20;99.90;;;;;;5118131;27;20192;-82
2023/01/15 03:06:51;;;;;;;15.50;2.80;;;7.20;99.90;;;;;;5097108;27;20301;-81
2023/01/15 03:09:18;;;;;;;12.52;1.80;;;7.20;99.90;;;;;;5095365;27;20187;-82
2023/01/15 03:12:11;;;;;;;10.25;2.30;;;7.20;99.90;;;;;;5111493;27;20215;-83
2023/01/15 03:15:10;;;;;;;13.43;2.20;;;7.10;99.90;;;;;;5090284;27;20245;-82
2023/01/15 03:17:56;;;;;;;18.15;2.17;;;7.10;99.90;;;;;;5094310;27;20177;-82
2023/01/15 03:20:28;;;;;;;17.88;2.85;;;7.20;99.90;;;;;;5112161;27;20191;-83
2023/01/15 03:23:05;;;;;;;16.75;2.47;;;7.10;99.90;;;;;;5111604;27;20185;-81
2023/01/15 03:25:37;;;;;;;13.50;2.15;;;7.20;99.90;;;;;;5114093;27;20200;-84
2023/01/15 03:28:06;;;;;;;16.45;2.28;;;7.10;99.90;;;;;;5114351;27;20185;-81
2023/01/15 03:30:33;;;;;;;17.38;2.55;;;7.20;99.90;;;;;;5113620;27;20504;-81
2023/01/15 03:32:59;;;;;;;22.80;2.67;;;7.20;99.90;;;;;;5091922;27;20188;-85
2023/01/15 03:35:57;;;;;;;16.48;2.50;;;7.10;99.90;;;;;;5095541;27;20199;-81
2023/01/15 03:38:39;;;;;;;15.13;2.97;;;7.20;99.90;;;;;;5099007;27;20188;-84
2023/01/15 03:41:23;;;;;;;15.32;2.63;;;7.10;99.90;;;;;;5097098;27;20184;-82
2023/01/15 03:44:23;;;;;;;10.60;2.22;;;7.10;99.90;;;;;;5111534;27;20287;-85
2023/01/15 03:47:10;;;;;;;15.82;2.20;;;7.10;99.90;;;;;;5111778;27;20693;-84
2023/01/15 03:49:40;;;;;;;17.73;2.38;;;7.10;99.90;;;;;;5115044;27;20185;-81
2023/01/15 03:52:17;;;;;;;19.35;2.72;;;7.10;99.90;;;;;;5112109;27;20258;-80
2023/01/15 03:55:15;;;;;;;14.38;2.42;;;7.10;99.90;;;;;;5095381;27;20188;-79
2023/01/15 03:57:58;;;;;;;14.32;2.42;;;7.10;99.90;;;;;;5113058;27;20245;-80
2023/01/15 04:00:47;;;;;;;17.08;2.50;;;7.10;99.90;;;;;;5108450;27;20230;-82
2023/01/15 04:03:16;;;;;;;18.25;2.60;;;7.10;99.90;;;;;;5113071;27;20216;-80
2023/01/15 04:05:43;;;;;;;20.27;2.38;;;7.10;99.90;;;;;;5081249;27;20549;-80
2023/01/15 04:08:12;;;;;;;15.00;2.50;;;7.10;99.90;;;;;;5109077;27;20188;-80
2023/01/15 04:10:52;;;;;;;17.80;2.47;;;7.10;99.90;;;;;;5080029;27;20200;-83
2023/01/15 04:13:19;;;;;;;7.35;1.95;;;7.10;99.90;;;;;;5112896;27;20184;-80
2023/01/15 04:15:45;;;;;;;12.48;1.83;;;7.00;99.90;;;;;;5111877;27;20184;-81
2023/01/15 04:18:12;;;;;;;13.00;2.55;;;7.10;99.90;;;;;;5108813;27;20579;-82
2023/01/15 04:20:37;;;;;;;13.43;2.38;;;7.00;99.90;;;;;;5090341;27;20184;-80
2023/01/15 04:23:03;;;;;;;14.77;2.10;;;7.00;99.90;;;;;;5114730;27;20209;-79
2023/01/15 04:25:29;;;;;;;14.30;1.98;;;7.00;99.90;;;;;;5109954;27;20212;-84
2023/01/15 04:27:55;;;;;;;17.08;2.55;;;7.00;99.90;;;;;;5108980;27;20184;-82
2023/01/15 04:30:21;;;;;;;15.88;2.45;;;7.00;99.90;;;;;;5108538;27;20208;-80
2023/01/15 04:32:51;;;;;;;16.35;2.42;;;7.00;99.90;;;;;;5109160;27;20810;-82
2023/01/15 04:35:18;;;;;;;17.63;2.38;;;6.90;99.90;;;;;;5110053;27;20268;-83
2023/01/15 04:37:44;;;;;;;18.58;2.50;;;7.00;99.90;;;;;;5107072;27;20211;-82
2023/01/15 04:44:05;;;;;;;11.60;1.80;;;7.00;99.90;;;;;;5109506;27;20185;-80
2023/01/15 04:45:44;;;;;;;16.00;2.45;;;7.00;99.90;;;;;;5108215;27;20220;-80
2023/01/15 04:48:13;;;;;;;18.55;2.97;;;6.90;99.90;;;;;;5105348;27;20242;-80
2023/01/15 04:50:39;;;;;;;14.40;2.42;;;6.90;99.90;;;;;;5108185;27;20211;-83
2023/01/15 04:53:05;;;;;;;19.40;2.38;;;6.90;99.90;;;;;;5109176;27;20616;-81
2023/01/15 04:55:31;;;;;;;17.77;2.20;;;6.90;99.90;;;;;;5095033;27;20811;-82
2023/01/15 04:57:57;;;;;;;16.88;2.00;;;6.90;99.90;;;;;;5107634;27;22331;-83
2023/01/15 05:00:23;;;;;;;22.23;2.70;;;6.90;99.90;;;;;;5106840;27;20699;-82
2023/01/15 05:02:49;;;;;;;11.68;2.35;;;6.90;99.90;;;;;;5107187;27;20197;-79
2023/01/15 05:05:15;;;;;;;14.70;2.15;;;6.90;99.90;;;;;;5092585;27;20217;-83
2023/01/15 05:07:41;;;;;;;8.52;1.88;;;6.90;99.90;;;;;;5095459;27;20991;-80
2023/01/15 05:10:07;;;;;;;19.13;2.55;;;6.90;99.90;;;;;;5075752;27;20181;-80
2023/01/15 05:12:33;;;;;;;21.65;2.25;;;6.90;99.90;;;;;;5108777;27;20208;-83
2023/01/15 05:14:59;;;;;;;14.77;2.33;;;6.80;99.90;;;;;;5107123;27;21068;-81
2023/01/15 05:17:24;;;;;;;16.48;2.15;;;6.80;99.90;;;;;;5112114;27;20195;-84
2023/01/15 05:19:50;;;;;;;20.90;2.88;;;6.80;99.90;;;;;;5110660;27;20181;-80
2023/01/15 05:22:16;;;;;;;19.23;2.35;;;6.80;99.90;;;;;;5106864;28;20301;-85
2023/01/15 05:24:42;;;;;;;13.02;2.03;;;6.80;99.90;;;;;;5107863;28;20653;-82
2023/01/15 05:27:07;;;;;;;16.33;2.05;;;6.80;99.90;;;;;;5103409;28;20548;-79
2023/01/15 05:29:33;;;;;;;17.52;2.08;;;6.80;99.90;;;;;;5111589;28;20333;-83
2023/01/15 05:31:59;;;;;;;9.20;2.25;;;6.80;99.90;;;;;;5105936;28;20956;-84
2023/01/15 05:34:25;;;;;;;10.20;2.10;;;6.70;99.90;;;;;;5106723;28;20667;-83
2023/01/15 05:36:51;;;;;;;12.80;1.98;;;6.70;99.90;;;;;;5095026;28;20192;-81
2023/01/15 05:39:16;;;;;;;19.08;2.50;;;6.70;99.90;;;;;;5107768;28;20469;-82
2023/01/15 05:41:48;;;;;;;15.50;2.30;;;6.70;99.90;;;;;;5081136;27;20666;-83
2023/01/15 05:44:18;;;;;;;14.70;2.67;;;6.70;99.90;;;;;;5098163;27;20271;-85
2023/01/15 05:46:44;;;;;;;16.50;2.35;;;6.70;99.90;;;;;;5114885;27;20757;-82
2023/01/15 05:49:16;;;;;;;17.52;2.13;;;6.60;99.90;;;;;;5113389;27;20172;-82
2023/01/15 05:51:44;;;;;;;19.42;2.22;;;6.60;99.90;;;;;;5113216;27;20168;-83
2023/01/15 05:54:16;;;;;;;14.25;2.17;;;6.50;99.90;;;;;;5113009;27;20560;-81
2023/01/15 05:56:42;;;;;;;15.98;2.50;;;6.60;99.90;;;;;;5110313;27;20173;-82
2023/01/15 05:59:08;;;;;;;14.32;2.45;;;6.60;99.90;;;;;;5113694;27;20187;-81
2023/01/15 06:01:35;;;;;;;18.98;2.17;;;6.50;99.90;;;;;;5096018;27;20199;-81
2023/01/15 06:04:02;;;;;;;14.32;2.33;;;6.50;99.90;;;;;;5100442;27;20189;-81
2023/01/15 06:06:28;;;;;;;11.90;2.10;;;6.50;99.90;;;;;;5113437;27;21448;-83
2023/01/15 06:08:54;;;;;;;20.10;2.58;;;6.50;99.90;;;;;;5114443;27;20196;-79
2023/01/15 06:11:20;;;;;;;14.05;2.08;;;6.50;99.90;;;;;;5099786;27;20188;-81
2023/01/15 06:13:46;;;;;;;15.70;2.47;;;6.50;99.90;;;;;;5111258;27;20197;-82
2023/01/15 06:16:12;;;;;;;13.90;2.30;;;6.40;99.90;;;;;;5081627;27;20339;-80
2023/01/15 06:18:38;;;;;;;12.55;2.05;;;6.40;99.90;;;;;;5098996;27;20187;-83
2023/01/15 06:21:06;;;;;;;12.98;2.10;;;6.40;99.90;;;;;;5096094;27;20640;-83
2023/01/15 06:23:35;;;;;;;10.80;2.10;;;6.40;99.90;;;;;;5112140;27;20650;-84
2023/01/15 06:26:07;;;;;;;12.48;1.98;;;6.40;99.90;;;;;;5108592;27;20213;-83
2023/01/15 06:28:33;;;;;;;10.75;2.15;;;6.40;99.90;;;;;;5111909;27;20187;-81
2023/01/15 06:30:59;;;;;;;13.55;2.10;;;6.40;99.90;;;;;;5112082;27;20736;-80
2023/01/15 06:33:25;;;;;;;13.18;2.17;;;6.40;99.90;;;;;;5114158;27;20195;-81
2023/01/15 06:35:51;;;;;;;14.73;1.73;;;6.30;99.90;;;;;;5110475;27;20279;-81
2023/01/15 06:38:17;;;;;;;15.63;2.28;;;6.30;99.90;;;;;;5114587;27;20188;-83
2023/01/15 06:40:42;;;;;;;16.23;1.92;;;6.30;99.90;;;;;;5111160;27;20181;-82
2023/01/15 06:48:38;;;;;;;12.50;2.00;;;6.30;99.90;;;;;;5112341;27;20649;-83
2023/01/15 06:51:04;;;;;;;14.88;2.55;;;6.30;99.90;;;;;;5111270;27;20197;-81
2023/01/15 06:53:30;;;;;;;8.38;1.70;;;6.30;99.90;;;;;;5079692;27;20590;-80
2023/01/15 06:55:55;;;;;;;18.98;2.70;;;6.20;99.90;;;;;;5107498;27;20189;-83
2023/01/15 06:58:21;;;;;;;10.85;1.98;;;6.30;99.90;;;;;;5093749;27;20242;-79
2023/01/15 07:00:53;;;;;;;9.13;1.83;;;6.20;99.90;;;;;;5095271;27;20867;-82
2023/01/15 07:03:19;;;;;;;15.05;2.38;;;6.30;99.90;;;;;;5101336;27;20607;-79
2023/01/15 07:05:45;;;;;;;15.15;2.05;;;6.20;99.90;;;;;;5097275;27;20213;-79
2023/01/15 07:08:10;;;;;;;10.63;2.03;;;6.20;99.90;;;;;;5110089;27;20656;-81
2023/01/15 07:10:36;;;;;;;7.97;1.70;;;6.20;99.90;;;;;;5111996;27;20192;-79
2023/01/15 07:13:02;;;;;;;12.05;2.00;;;6.20;99.90;;;;;;5094624;27;20563;-79
2023/01/15 07:15:29;;;;;;;11.88;1.65;;;6.20;99.90;;;;;;5108843;27;20207;-80
2023/01/15 07:17:56;;;;;;;15.18;1.92;;;6.20;99.90;;;;;;5077711;27;20181;-80
2023/01/15 07:20:22;;;;;;;9.55;1.52;;;6.20;99.90;;;;;;5112040;27;20191;-81
2023/01/15 07:22:49;;;;;;;17.00;2.47;;;6.20;99.90;;;;;;5110053;27;20308;-83
2023/01/15 07:25:14;;;;;;;16.35;2.42;;;6.20;99.90;;;;;;5113515;27;20219;-83
2023/01/15 07:27:40;;;;;;;11.55;2.05;;;6.20;99.90;;;;;;5113100;27;20185;-82
2023/01/15 07:30:07;;;;;;;16.15;2.25;;;6.10;99.90;;;;;;5101333;27;20180;-82
2023/01/15 07:32:32;;;;;;;14.27;2.15;;;6.10;99.90;;;;;;5111061;27;20845;-83
2023/01/15 07:34:58;;;;;;;13.55;2.22;;;6.10;99.90;;;;;;5111533;27;20556;-81
2023/01/15 07:37:24;;;;;;;9.82;1.95;;;6.20;99.90;;;;;;5108053;27;20205;-85
2023/01/15 07:39:50;;;;;;;10.10;1.77;;;6.20;99.90;;;;;;5105631;27;20416;-81
2023/01/15 07:50:30;;;;;;;9.75;2.15;;;6.20;99.90;;;;;;5095662;27;20206;-84
2023/01/15 07:52:56;;;;;;;11.20;1.85;;;6.20;99.90;;;;;;5108278;27;20201;-81
2023/01/15 07:55:22;;;;;;;11.77;1.80;;;6.10;99.90;;;;;;5110021;27;20189;-84
2023/01/15 07:57:48;;;;;;;14.48;1.88;;;6.00;99.90;;;;;;5110581;27;20181;-81
2023/01/15 08:00:19;;;;;;;11.73;1.75;;;6.20;99.90;;;;;;5105570;27;21411;-82
2023/01/15 08:02:48;;;;;;;14.95;4.75;;;6.20;99.90;;;;;;5108622;27;21393;-80
2023/01/15 08:05:14;;;;;;;16.10;5.63;;;6.10;99.90;;;;;;5109653;27;20428;-80
2023/01/15 08:07:41;;;;;;;18.52;3.53;;;6.20;99.90;;;;;;5109934;27;20188;-88
2023/01/15 08:10:09;;;;;;;10.73;2.38;;;6.30;99.90;;;;;;5109499;27;20200;-82
2023/01/15 08:15:19;;;;;;;9.52;2.42;;;6.40;99.90;;;;;;5111307;27;20197;-80
2023/01/15 08:17:47;;;;;;;10.00;2.10;;;6.40;99.90;;;;;;5108004;27;20608;-83
2023/01/15 08:20:19;;;;;;;8.10;1.73;;;6.50;99.90;;;;;;5095859;27;20181;-81
2023/01/15 08:22:45;;;;;;;7.30;1.70;;;6.50;99.90;;;;;;5130981;27;20231;-80
2023/01/15 08:25:14;;;;;;;18.13;2.47;;;6.60;99.90;;;;;;5095866;27;20204;-83
2023/01/15 08:27:39;;;;;;;4.68;1.25;;;6.60;99.90;;;;;;5096514;27;20204;-81
2023/01/15 08:30:08;;;;;;;18.60;2.72;;;6.60;99.90;;;;;;5111844;27;20636;-84
2023/01/15 08:32:34;;;;;;;14.27;2.10;;;6.70;99.90;;;;;;5108013;27;21526;-82
2023/01/15 08:34:59;;;;;;;13.95;1.88;;;6.80;99.90;;;;;;5109774;27;20674;-81
2023/01/15 08:37:25;;;;;;;13.05;1.88;;;6.70;99.90;;;;;;5109211;27;20192;-82
2023/01/15 08:39:52;;;;;;;9.05;1.77;;;6.80;99.90;;;;;;5113032;27;20180;-82
2023/01/15 08:42:19;;;;;;;10.98;2.10;;;6.70;99.90;;;;;;5092961;27;20189;-82
2023/01/15 08:44:45;;;;;;;16.17;2.42;;;6.60;99.90;;;;;;5100096;27;20201;-81
2023/01/15 08:47:11;;;;;;;10.07;1.90;;;6.60;99.90;;;;;;5090419;27;20269;-83
2023/01/15 08:49:37;;;;;;;15.15;1.60;;;6.60;99.90;;;;;;5109185;27;20398;-81
2023/01/15 08:52:03;;;;;;;16.00;2.05;;;6.50;99.90;;;;;;5095624;27;20229;-82
2023/01/15 08:54:30;;;;;;;18.35;2.42;;;6.60;99.90;;;;;;5114022;27;20627;-83
2023/01/15 08:56:55;;;;;;;6.68;1.60;;;6.60;99.90;;;;;;5111502;27;20196;-83
2023/01/15 08:59:21;;;;;;;9.57;1.38;;;6.50;99.90;;;;;;5096216;27;20177;-81
2023/01/15 09:01:47;;;;;;;17.33;2.15;;;6.50;99.90;;;;;;5112002;27;20229;-80
2023/01/15 09:04:15;;;;;;;8.57;1.63;;;6.50;99.90;;;;;;5115815;27;20185;-83
2023/01/15 09:06:42;;;;;;;9.60;2.03;;;6.30;99.90;;;;;;5107814;27;20313;-80
2023/01/15 09:09:08;;;;;;;11.52;2.08;;;6.20;99.90;;;;;;5079602;27;20216;-81
2023/01/15 09:11:35;;;;;;;13.38;2.05;;;6.20;99.90;;;;;;5091767;27;20187;-80
2023/01/15 09:14:00;;;;;;;10.85;1.60;;;6.10;99.90;;;;;;5112985;27;20590;-81
2023/01/15 09:16:26;;;;;;;10.30;1.90;;;6.20;99.90;;;;;;5111265;27;20184;-83
2023/01/15 09:18:53;;;;;;;8.30;1.65;;;6.30;99.90;;;;;;5114641;27;20180;-89
2023/01/15 09:21:19;;;;;;;11.15;1.88;;;6.30;99.90;;;;;;5111466;27;20533;-81
2023/01/15 09:23:45;;;;;;;8.70;1.38;;;6.20;99.90;;;;;;5096376;27;20184;-82
2023/01/15 09:26:34;;;;;;;6.35;1.25;;;6.20;99.90;;;;;;5111525;27;20216;-80
2023/01/15 09:29:01;;;;;;;6.40;1.45;;;6.20;99.90;;;;;;5108950;28;20192;-83
2023/01/15 09:31:27;;;;;;;11.93;1.65;;;6.20;99.90;;;;;;5111020;28;20215;-81
2023/01/15 09:33:53;;;;;;;13.80;1.77;;;6.20;99.90;;;;;;5109009;28;20223;-80
2023/01/15 09:36:27;;;;;;;8.55;1.73;;;6.30;99.90;;;;;;5094615;28;20621;-81
2023/01/15 09:38:54;;;;;;;12.70;1.92;;;6.30;99.90;;;;;;5110251;28;20177;-82
2023/01/15 09:44:33;;;;;;;12.25;2.17;;;6.50;99.90;;;;;;5096449;28;20190;-84
2023/01/15 09:47:06;;;;;;;10.85;1.75;;;6.60;99.90;;;;;;5109656;27;20220;-82
2023/01/15 09:49:50;;;;;;;14.05;2.17;;;6.60;99.90;;;;;;5109309;28;20189;-81
2023/01/15 09:52:21;;;;;;;15.05;2.00;;;6.70;99.90;;;;;;5108050;28;20184;-86
2023/01/15 09:55:02;;;;;;;14.55;2.20;;;6.90;99.90;;;;;;5111879;27;20188;-86
2023/01/15 09:57:29;;;;;;;16.02;2.05;;;7.20;99.90;;;;;;5113488;28;20180;-89
2023/01/15 10:00:05;;;;;;;20.40;2.10;;;7.60;99.90;;;;;;5083921;28;20288;-89
2023/01/15 10:03:03;;;;;;;8.25;1.95;;;8.10;99.90;;;;;;5111564;28;20272;-83
2023/01/15 10:05:34;;;;;;;14.98;2.15;;;8.70;99.90;;;;;;5112143;28;20205;-84
2023/01/15 10:08:14;;;;;;;12.25;2.45;;;8.90;99.90;;;;;;5097706;28;20180;-83
2023/01/15 10:10:51;;;;;;;13.00;2.40;;;9.20;99.90;;;;;;5098313;28;20169;-84
2023/01/15 10:13:40;;;;;;;9.85;1.75;;;9.20;99.90;;;;;;5113213;28;20177;-84
2023/01/15 10:16:07;;;;;;;18.05;2.20;;;9.20;99.90;;;;;;5096992;28;20176;-86
2023/01/15 10:18:34;;;;;;;10.95;1.85;;;9.20;99.90;;;;;;5090887;28;20786;-86
2023/01/15 10:21:04;;;;;;;10.77;1.88;;;9.30;99.90;;;;;;5110457;28;20176;-84
2023/01/15 10:23:34;;;;;;;11.57;1.90;;;9.40;99.90;;;;;;5114777;28;20174;-84
2023/01/15 10:26:19;;;;;;;7.95;1.73;;;9.50;99.90;;;;;;5112291;27;20331;-84
2023/01/15 10:29:02;;;;;;;10.80;1.52;;;9.80;99.90;;;;;;5116612;27;20184;-88
2023/01/15 10:31:47;;;;;;;14.32;1.58;;;10.00;99.90;;;;;;5101870;27;20181;-84
2023/01/15 10:34:33;;;;;;;9.23;1.63;;;10.00;99.90;;;;;;5116099;27;20180;-90
2023/01/15 10:37:26;;;;;;;15.48;2.10;;;10.10;99.90;;;;;;5117400;27;20177;-83
2023/01/15 10:40:16;;;;;;;7.35;2.00;;;10.20;99.90;;;;;;5114291;27;20208;-84
2023/01/15 10:43:20;;;;;;;10.60;1.60;;;10.40;99.90;;;;;;5114359;27;21125;-84
2023/01/15 10:45:50;;;;;;;9.43;1.45;;;10.50;99.90;;;;;;5039116;28;20237;-82
2023/01/15 10:48:29;;;;;;;15.23;1.75;;;10.60;99.90;;;;;;5052788;28;20237;-79
2023/01/15 10:50:57;;;;;;;14.60;2.05;;;10.50;99.90;;;;;;5080758;27;20204;-83
2023/01/15 10:53:50;;;;;;;12.70;1.85;;;10.40;99.90;;;;;;5102403;27;20191;-82
2023/01/15 10:56:37;;;;;;;7.20;1.60;;;10.30;99.90;;;;;;5115482;27;20193;-84
2023/01/15 10:59:12;;;;;;;7.63;1.73;;;10.40;99.90;;;;;;5117408;27;20177;-83
2023/01/15 11:01:39;;;;;;;11.55;1.80;;;10.50;99.90;;;;;;5113346;27;20894;-84
2023/01/15 11:04:07;;;;;;;12.65;2.00;;;10.70;99.90;;;;;;5120100;27;20192;-85
2023/01/15 11:06:33;;;;;;;14.77;2.00;;;10.90;99.90;;;;;;5112086;27;20201;-82
2023/01/15 11:09:00;;;;;;;12.25;1.95;;;11.20;99.90;;;;;;5100722;27;20203;-84
2023/01/15 11:20:42;;;;;;;10.98;1.90;;;11.70;99.90;;;;;;5113685;27;20291;-83
2023/01/15 11:23:32;;;;;;;17.75;2.67;;;11.80;99.90;;;;;;5109710;27;20181;-81
2023/01/15 11:25:59;;;;;;;8.15;1.75;;;11.90;99.90;;;;;;5097701;27;20767;-87
2023/01/15 11:28:42;;;;;;;12.18;2.38;;;11.90;99.90;;;;;;5112474;27;20391;-81
2023/01/15 11:31:10;;;;;;;12.57;1.73;;;11.70;99.80;;;;;;5118949;27;20192;-79
2023/01/15 11:33:37;;;;;;;15.18;2.00;;;11.50;99.90;;;;;;5114459;27;20208;-82
2023/01/15 11:36:07;;;;;;;9.75;2.28;;;11.10;99.90;;;;;;5113129;27;20279;-83
2023/01/15 11:38:49;;;;;;;13.88;2.33;;;10.80;99.90;;;;;;5112072;27;20177;-84
2023/01/15 11:52:56;;;;;;;13.85;2.28;;;9.60;99.90;;;;;;5099806;27;20283;-84
2023/01/15 11:55:25;;;;;;;15.05;2.45;;;9.40;99.90;;;;;;5110776;27;20203;-83
2023/01/15 11:57:52;;;;;;;13.40;2.30;;;9.30;99.90;;;;;;5109584;27;20184;-85
2023/01/15 12:00:29;;;;;;;10.73;2.00;;;9.20;99.90;;;;;;5111938;27;20181;-84
2023/01/15 12:03:05;;;;;;;21.48;2.63;;;9.10;99.90;;;;;;5095471;27;20180;-82
2023/01/15 12:05:34;;;;;;;9.35;1.90;;;9.00;99.90;;;;;;5097028;27;20249;-84
2023/01/15 12:08:10;;;;;;;13.48;2.40;;;8.90;99.90;;;;;;5113327;27;20216;-83
2023/01/15 12:11:03;;;;;;;15.52;3.35;;;8.80;99.90;;;;;;5111136;27;20173;-85
2023/01/15 12:13:31;;;;;;;19.63;2.80;;;8.70;99.90;;;;;;5118395;27;20185;-82
2023/01/15 12:16:22;;;;;;;15.65;2.78;;;8.60;99.90;;;;;;5115964;27;20181;-83
2023/01/15 12:19:13;;;;;;;12.73;2.40;;;8.60;99.90;;;;;;5111633;27;20191;-81
2023/01/15 12:21:57;;;;;;;11.75;1.98;;;8.50;99.90;;;;;;5111126;27;20179;-82
2023/01/15 12:24:54;;;;;;;16.02;2.10;;;8.50;99.90;;;;;;5097855;27;20177;-82
2023/01/15 12:27:46;;;;;;;14.85;2.30;;;8.50;99.90;;;;;;5115303;27;20187;-85
2023/01/15 12:30:12;;;;;;;12.23;1.33;;;8.40;99.90;;;;;;5123476;27;20177;-82
2023/01/15 12:32:43;;;;;;;5.88;1.60;;;8.30;99.90;;;;;;5094448;27;20185;-83
2023/01/15 12:35:36;;;;;;;3.75;0.93;;;8.10;99.90;;;;;;5111935;27;20735;-83
2023/01/15 12:38:38;;;;;;;5.28;1.20;;;7.80;99.90;;;;;;5109849;27;20261;-83
2023/01/15 12:41:13;;;;;;;5.03;1.33;;;7.60;99.90;;;;;;5070745;27;20188;-84
2023/01/15 12:46:33;;;;;;;4.63;1.23;;;7.20;99.90;;;;;;5109773;27;20197;-82
2023/01/15 12:49:31;;;;;;;4.00;1.27;;;7.10;99.90;;;;;;5111554;27;20229;-81
2023/01/15 12:52:05;;;;;;;5.05;1.20;;;7.00;99.90;;;;;;5094691;27;20250;-82
2023/01/15 12:54:45;;;;;;;8.80;1.73;;;7.00;99.90;;;;;;5096333;27;20179;-82
2023/01/15 12:57:19;;;;;;;6.57;1.55;;;6.90;99.90;;;;;;5130497;27;20271;-85
2023/01/15 13:00:04;;;;;;;3.85;1.02;;;6.90;99.90;;;;;;5113266;27;20546;-85
2023/01/15 13:02:48;;;;;;;4.43;1.10;;;6.90;99.90;;;;;;5111881;27;20278;-83
2023/01/15 13:05:25;;;;;;;6.00;1.20;;;6.90;99.90;;;;;;5096403;27;20228;-83
2023/01/15 13:08:04;;;;;;;8.10;1.63;;;6.90;99.90;;;;;;5130722;27;20176;-83
2023/01/15 13:10:34;;;;;;;4.93;1.35;;;6.90;99.90;;;;;;5111667;27;20172;-85
2023/01/15 13:13:15;;;;;;;7.53;1.27;;;6.90;99.90;;;;;;5095598;27;20223;-85
2023/01/15 13:16:02;;;;;;;6.78;1.52;;;6.90;99.90;;;;;;5112877;27;20264;-83
2023/01/15 13:18:30;;;;;;;7.45;1.30;;;6.90;99.90;;;;;;5109169;27;20181;-84
2023/01/15 13:20:59;;;;;;;7.35;1.65;;;6.90;99.90;;;;;;5110505;27;20276;-84
2023/01/15 13:23:51;;;;;;;8.57;1.85;;;6.90;99.90;;;;;;5111466;27;20180;-82
2023/01/15 13:26:35;;;;;;;5.53;1.30;;;6.90;99.90;;;;;;5112453;28;20664;-84
2023/01/15 13:29:16;;;;;;;3.92;1.00;;;6.90;99.90;;;;;;5109397;28;20204;-88
2023/01/15 13:31:59;;;;;;;6.40;1.50;;;6.90;99.90;;;;;;5112896;28;20245;-85
2023/01/15 13:34:37;;;;;;;7.72;1.25;;;6.90;99.90;;;;;;5100234;28;20259;-84
2023/01/15 13:37:32;;;;;;;5.75;1.40;;;6.90;99.90;;;;;;5113526;27;20223;-83
2023/01/15 13:40:12;;;;;;;5.22;1.20;;;6.80;99.90;;;;;;5131098;27;20277;-82
2023/01/15 13:42:39;;;;;;;5.25;1.23;;;6.80;99.90;;;;;;5111944;28;20429;-83
2023/01/15 13:45:14;;;;;;;6.53;1.38;;;6.80;99.90;;;;;;5110844;28;20216;-84
2023/01/15 13:47:46;;;;;;;9.52;1.50;;;6.80;99.90;;;;;;5129555;27;20223;-83
2023/01/15 13:50:22;;;;;;;5.32;1.10;;;6.80;99.90;;;;;;5113196;27;20269;-83
2023/01/15 13:52:48;;;;;;;4.80;1.02;;;6.80;99.90;;;;;;5096740;28;20648;-83
2023/01/15 13:55:29;;;;;;;3.80;0.90;;;6.70;99.90;;;;;;5099227;28;20210;-82
2023/01/15 13:57:55;;;;;;;2.88;0.90;;;6.70;99.90;;;;;;5110513;28;20176;-82
2023/01/15 14:00:31;;;;;;;2.03;0.93;;;6.60;99.90;;;;;;5095191;28;20192;-84
2023/01/15 14:03:00;;;;;;;5.65;1.15;;;6.50;99.90;;;;;;5117691;27;20207;-82